Detall de PIREP

Printer-friendly versionPDF version

[2013/01/29 10:27:00]
Flight IATA:CT2210
Pilot Number:042
Company ICAO:CAT
Aircraft Type:C750/F
PAX:2
Departing Airport: LFMP
Destination Airport: LFPG
Alternate Airport:EHRD
Online: VATSIM
Route:N0350F180 ORBIL G36 GAI/N450F280 UY156 FISTO UY156 PERIG UY156 FOUCO UT181 POI UT182 PEPAX UT182 KEPER
Flight Level:F280
No Slew and time accel
No pause
Crash detect
Detect pilot in Cockpit between each 30 and 45 minutes
10:27 Zero fuel Weight: 22920 Lbs, Fuel Weight: 12978 Lbs
10:27 VATSIM:LFMP 291000Z 25005KT 210V290 CAVOK 13/02 Q1026 NOSIG
10:27 VATSIM:LFPG 291000Z 22019KT 9999 -RA BKN013 10/09 Q1014 NOSIG
10:27 VOICE CATALONIAN
10:38 Parking Brakes off
10:53 Take-off
10:53 Take off Weight: 35701 Lbs
10:53 Wind: 224º @ 004 Knots Heading: 151º
10:53 POS N42º 44´ 26´´ E002º 52´ 21´´
10:53 Gear Up: 156 Knots
10:53 Flaps:4 at 156 Knots
10:54 Flaps:3 at 170 Knots
10:55 Flaps:0 at 199 Knots
11:03 TOC
11:03 Fuel Weight: 12255 Lb
11:08 Wind:271º@003 Knots Heading: 327º Ground Speed: 481 Knots Altitude 28392 ft
11:23 Wind:323º@064 Knots Heading: 330º Ground Speed: 427 Knots Altitude 28323 ft
11:38 Wind:321º@066 Knots Heading: 006º Ground Speed: 448 Knots Altitude 28228 ft
11:53 Wind:323º@073 Knots Heading: 054º Ground Speed: 480 Knots Altitude 28054 ft
11:59 TOD
11:59 Fuel Weight: 10510 Lb
11:59 TOC
11:59 Fuel Weight: 10504 Lb
11:59 TOD
11:59 Fuel Weight: 10506 Lb
12:08 Wind:330º@022 Knots Heading: 336º Ground Speed: 262 Knots Altitude 7542 ft
12:11 Flaps:1 at 183 Knots
12:11 Flaps:2 at 182 Knots
12:13 Flaps:3 at 134 Knots
12:14 Flaps:2 at 143 Knots
12:17 Flaps:3 at 191 Knots
12:21 Flaps:4 at 147 Knots
12:22 Gear Down: 148 Knots
12:22 Flaps:5 at 145 Knots
12:23 Wind:157º@005 Knots Heading: 263º Ground Speed: 131 Knots Altitude 2017 ft
12:25 TouchDown:Rate -115 ft/min Speed: 99 Knots
12:25 VATSIM:LFPG 291200Z 22019KT 4500 -RA BKN011 BKN016 10/08 Q1014 NOSIG
12:25 Land
12:25 Wind:173º@005 Knots
12:25 Heading: 274º
12:25 Flight Duration: 01:32
12:25 Landing Weight: 33135 Lbs
12:25 POS N48º 59´ 35´´ E002º 34´ 32´´
12:33 Parking brakes on
12:33 Block to Block Duration: 01:55
12:33 Final Fuel: 10130 Lbls
12:33 Spent Fuel: 2848 Lbls
12:33 Flight Length: 478 NM
12:33 TOD Land Length: 106 NM

Exportar CSV

Powered by Drupal - Modified by Danger4k